createdAt,value
2018-02-15T00:01:28.145Z,29.30
2018-02-15T00:04:02.804Z,29.70
2018-02-15T00:06:37.420Z,29.30
2018-02-15T00:09:11.517Z,30.00
2018-02-15T00:11:47.118Z,29.10
2018-02-15T00:14:21.579Z,29.10
2018-02-15T00:16:55.268Z,29.10
2018-02-15T00:19:28.996Z,29.30
2018-02-15T00:22:02.643Z,29.60
2018-02-15T00:24:36.396Z,29.70
2018-02-15T00:27:10.155Z,29.40
2018-02-15T00:29:43.866Z,29.50
2018-02-15T00:32:17.821Z,29.70
2018-02-15T00:34:52.390Z,29.40
2018-02-15T00:37:27.091Z,29.30
2018-02-15T00:40:00.828Z,29.20
2018-02-15T00:42:35.365Z,29.20
2018-02-15T00:45:10.855Z,29.20
2018-02-15T00:47:44.732Z,29.30
2018-02-15T00:50:19.292Z,29.10
2018-02-15T00:52:53.064Z,29.10
2018-02-15T00:55:28.432Z,29.10
2018-02-15T00:58:02.200Z,29.00
2018-02-15T01:00:36.008Z,29.20
2018-02-15T01:03:09.741Z,29.00
2018-02-15T01:05:44.231Z,29.10
2018-02-15T01:08:18.015Z,29.10
2018-02-15T01:10:51.835Z,28.90
2018-02-15T01:13:26.260Z,28.50
2018-02-15T01:16:00.745Z,28.50
2018-02-15T01:18:34.591Z,28.40
2018-02-15T01:21:08.244Z,27.90
2018-02-15T01:23:42.013Z,27.50
2018-02-15T01:26:16.714Z,27.50
2018-02-15T01:28:50.953Z,27.30
2018-02-15T01:31:26.015Z,27.00
2018-02-15T01:34:00.522Z,26.90
2018-02-15T01:36:36.255Z,26.90
2018-02-15T01:39:10.799Z,26.60
2018-02-15T01:41:44.456Z,26.70
2018-02-15T01:44:21.451Z,26.60
2018-02-15T01:46:55.699Z,26.80
2018-02-15T01:49:29.374Z,26.90
2018-02-15T01:52:08.476Z,27.00
2018-02-15T01:54:42.891Z,27.60
2018-02-15T01:57:17.370Z,27.60
2018-02-15T01:59:52.713Z,27.50
2018-02-15T02:02:27.212Z,27.50
2018-02-15T02:05:01.697Z,28.00
2018-02-15T02:07:36.149Z,28.70
2018-02-15T02:10:09.983Z,28.60
2018-02-15T02:12:44.548Z,28.70
2018-02-15T02:15:18.327Z,28.70
2018-02-15T02:17:53.541Z,28.60
2018-02-15T02:20:28.617Z,28.80
2018-02-15T02:23:02.923Z,28.80
2018-02-15T02:25:36.768Z,28.50
2018-02-15T02:28:10.504Z,28.00
2018-02-15T02:30:44.311Z,28.10
2018-02-15T02:33:18.697Z,27.60
2018-02-15T02:35:52.980Z,27.60
2018-02-15T02:38:26.832Z,27.60
2018-02-15T02:41:01.569Z,27.70
2018-02-15T02:43:37.608Z,28.00
2018-02-15T02:46:12.367Z,27.80
2018-02-15T02:48:46.075Z,27.40
2018-02-15T02:51:19.946Z,27.60
2018-02-15T02:53:53.719Z,27.30
2018-02-15T02:56:27.528Z,26.70
2018-02-15T02:59:01.298Z,26.70
2018-02-15T03:01:34.865Z,26.70
2018-02-15T03:04:10.340Z,26.70
2018-02-15T03:06:45.256Z,26.70
2018-02-15T03:09:19.105Z,26.60
2018-02-15T03:11:52.769Z,26.00
2018-02-15T03:14:31.552Z,25.70
2018-02-15T03:17:06.178Z,25.50
2018-02-15T03:19:40.883Z,25.20
2018-02-15T03:22:14.732Z,25.10
2018-02-15T03:24:49.376Z,25.30
2018-02-15T03:27:23.088Z,25.00
2018-02-15T03:29:56.775Z,25.40
2018-02-15T03:32:31.451Z,24.90
2018-02-15T03:35:05.723Z,24.80
2018-02-15T03:37:40.172Z,24.80
2018-02-15T03:40:15.281Z,24.60
2018-02-15T03:42:49.022Z,24.40
2018-02-15T03:45:23.336Z,24.80
2018-02-15T03:47:56.909Z,24.60
2018-02-15T03:50:30.664Z,24.00
2018-02-15T03:53:04.215Z,24.10
2018-02-15T03:55:38.059Z,24.30
2018-02-15T03:58:11.684Z,24.10
2018-02-15T04:00:46.073Z,23.80
2018-02-15T04:03:19.708Z,23.10
2018-02-15T04:05:54.167Z,22.00
2018-02-15T04:08:28.780Z,21.80
2018-02-15T04:11:02.581Z,21.80
2018-02-15T04:13:37.179Z,20.50
2018-02-15T04:16:10.943Z,20.50
2018-02-15T04:18:44.720Z,20.70
2018-02-15T04:21:19.781Z,20.70
2018-02-15T04:23:53.668Z,20.10
2018-02-15T04:26:28.836Z,20.20
2018-02-15T04:29:03.510Z,19.30
2018-02-15T04:31:38.058Z,19.60
2018-02-15T04:34:13.781Z,19.60
2018-02-15T04:36:47.726Z,18.80
2018-02-15T04:39:22.589Z,19.20
2018-02-15T04:41:58.170Z,19.20
2018-02-15T04:44:31.981Z,19.10
2018-02-15T04:47:05.828Z,18.60
2018-02-15T04:49:39.584Z,18.40
2018-02-15T04:52:14.021Z,18.60
2018-02-15T04:54:48.679Z,18.00
2018-02-15T04:57:22.394Z,18.40
2018-02-15T04:59:56.192Z,18.10
2018-02-15T05:02:30.581Z,18.70
2018-02-15T05:05:05.410Z,17.40
2018-02-15T05:07:39.134Z,18.50
2018-02-15T05:10:14.249Z,17.70
2018-02-15T05:12:48.696Z,18.10
2018-02-15T05:15:23.364Z,18.50
2018-02-15T05:17:57.499Z,18.40
2018-02-15T05:20:33.078Z,17.10
2018-02-15T05:23:08.380Z,17.90
2018-02-15T05:25:42.029Z,17.90
2018-02-15T05:28:16.555Z,17.20
2018-02-15T05:30:50.512Z,17.20
2018-02-15T05:33:24.225Z,17.50
2018-02-15T05:36:00.532Z,18.60
2018-02-15T05:38:35.696Z,18.60
2018-02-15T05:41:09.325Z,17.90
2018-02-15T05:43:44.182Z,17.70
2018-02-15T05:46:17.855Z,17.60
2018-02-15T05:48:52.997Z,19.10
2018-02-15T05:51:28.494Z,19.10
2018-02-15T05:54:02.891Z,18.80
2018-02-15T05:56:36.652Z,18.40
2018-02-15T05:59:11.252Z,18.90
2018-02-15T06:01:45.031Z,17.80
2018-02-15T06:04:18.833Z,17.90
2018-02-15T06:06:52.525Z,17.40
2018-02-15T06:09:26.334Z,17.40
2018-02-15T06:12:00.139Z,17.00
2018-02-15T06:14:33.926Z,16.60
2018-02-15T06:17:08.058Z,16.70
2018-02-15T06:19:41.770Z,16.80
2018-02-15T06:22:18.777Z,16.60
2018-02-15T06:24:53.645Z,16.70
2018-02-15T06:27:28.879Z,17.00
2018-02-15T06:30:03.231Z,16.50
2018-02-15T06:32:37.066Z,16.80
2018-02-15T06:35:10.747Z,16.80
2018-02-15T06:37:44.804Z,16.50
2018-02-15T06:40:19.439Z,16.00
2018-02-15T06:42:53.192Z,16.00
2018-02-15T06:45:27.142Z,16.50
2018-02-15T06:48:00.801Z,17.00
2018-02-15T06:50:34.600Z,15.90
2018-02-15T06:53:08.427Z,15.50
2018-02-15T06:55:41.991Z,15.30
2018-02-15T06:58:16.359Z,15.80
2018-02-15T07:00:50.641Z,15.90
2018-02-15T07:03:24.706Z,16.20
2018-02-15T07:05:59.094Z,16.30
2018-02-15T07:08:33.709Z,14.80
2018-02-15T07:11:07.416Z,14.90
2018-02-15T07:13:41.277Z,15.20
2018-02-15T07:16:15.894Z,15.30
2018-02-15T07:18:49.605Z,15.30
2018-02-15T07:21:23.389Z,14.50
2018-02-15T07:23:57.941Z,15.20
2018-02-15T07:26:32.743Z,14.80
2018-02-15T07:29:06.651Z,14.70
2018-02-15T07:31:40.346Z,14.60
2018-02-15T07:34:14.520Z,15.00
2018-02-15T07:36:50.347Z,15.10
2018-02-15T07:39:29.130Z,14.20
2018-02-15T07:42:08.652Z,14.20
2018-02-15T07:44:42.355Z,14.10
2018-02-15T07:47:18.145Z,14.70
2018-02-15T07:49:51.875Z,14.60
2018-02-15T07:52:25.907Z,14.00
2018-02-15T07:55:00.796Z,14.40
2018-02-15T07:57:36.777Z,13.60
2018-02-15T08:00:12.256Z,14.00
2018-02-15T08:02:47.772Z,13.70
2018-02-15T08:05:21.653Z,13.80
2018-02-15T08:07:57.468Z,13.80
2018-02-15T08:10:32.946Z,14.20
2018-02-15T08:13:07.186Z,13.80
2018-02-15T08:15:41.619Z,13.80
2018-02-15T08:18:16.227Z,13.90
2018-02-15T08:20:49.976Z,13.80
2018-02-15T08:23:24.461Z,13.90
2018-02-15T08:25:58.503Z,13.90
2018-02-15T08:28:33.057Z,13.20
2018-02-15T08:31:08.317Z,13.90
2018-02-15T08:33:42.211Z,13.90
2018-02-15T08:36:15.951Z,12.10
2018-02-15T08:38:51.375Z,12.50
2018-02-15T08:41:25.899Z,12.30
2018-02-15T08:43:59.675Z,12.70
2018-02-15T08:49:13.212Z,11.50
2018-02-15T08:51:47.062Z,11.70
2018-02-15T08:54:23.597Z,11.70
2018-02-15T08:57:04.410Z,11.00
2018-02-15T08:59:39.404Z,12.00
2018-02-15T09:02:14.665Z,11.30
2018-02-15T09:04:49.007Z,11.60
2018-02-15T09:07:23.142Z,11.50
2018-02-15T09:09:58.042Z,11.70
2018-02-15T09:12:33.446Z,12.30
2018-02-15T09:15:08.675Z,11.90
2018-02-15T09:17:42.544Z,12.10
2018-02-15T09:20:16.273Z,12.30
2018-02-15T09:22:49.983Z,12.60
2018-02-15T09:25:24.612Z,12.30
2018-02-15T09:27:59.194Z,12.50
2018-02-15T09:30:33.089Z,13.10
2018-02-15T09:33:07.233Z,12.40
2018-02-15T09:35:41.756Z,13.40
2018-02-15T09:38:15.951Z,13.60
2018-02-15T09:40:50.721Z,14.30
2018-02-15T09:43:24.671Z,15.40
2018-02-15T09:45:59.368Z,16.50
2018-02-15T09:48:32.960Z,18.10
2018-02-15T09:51:06.696Z,19.80
2018-02-15T09:53:44.397Z,21.30
2018-02-15T09:56:19.358Z,21.30
2018-02-15T09:58:55.079Z,23.20
2018-02-15T10:01:28.878Z,24.10
2018-02-15T10:04:05.521Z,23.80
2018-02-15T10:06:39.260Z,23.80
2018-02-15T10:09:14.676Z,25.50
2018-02-15T10:11:53.476Z,25.50
2018-02-15T10:14:27.104Z,25.60
2018-02-15T10:17:01.516Z,26.20
2018-02-15T10:19:35.388Z,27.80
2018-02-15T10:22:09.216Z,28.20
2018-02-15T10:24:43.012Z,29.00
2018-02-15T10:27:17.217Z,28.20
2018-02-15T10:29:52.197Z,29.00
2018-02-15T10:32:28.256Z,28.20
2018-02-15T10:35:06.251Z,28.30
2018-02-15T10:37:41.226Z,28.90
2018-02-15T10:40:16.167Z,28.90
2018-02-15T10:42:52.334Z,28.90
2018-02-15T10:45:31.510Z,28.50
2018-02-15T10:48:07.773Z,28.50
2018-02-15T10:50:42.628Z,29.30
2018-02-15T10:53:18.092Z,28.50
2018-02-15T10:55:52.714Z,28.50
2018-02-15T10:58:27.505Z,28.50
2018-02-15T11:01:07.686Z,28.60
2018-02-15T11:03:42.378Z,28.80
2018-02-15T11:06:18.852Z,28.50
2018-02-15T11:08:58.048Z,28.50
2018-02-15T11:11:35.297Z,29.60
2018-02-15T11:14:13.119Z,28.90
2018-02-15T11:16:51.514Z,29.70
2018-02-15T11:19:29.104Z,29.00
2018-02-15T11:22:05.651Z,30.10
2018-02-15T11:24:40.517Z,29.60
2018-02-15T11:27:14.392Z,30.00
2018-02-15T11:29:49.644Z,31.00
2018-02-15T11:32:26.149Z,34.30
2018-02-15T11:34:59.804Z,35.70
2018-02-15T11:37:35.878Z,37.80
2018-02-15T11:40:10.131Z,36.70
2018-02-15T11:42:44.487Z,36.70
2018-02-15T11:45:22.884Z,34.80
2018-02-15T11:47:58.692Z,33.90
2018-02-15T11:50:33.183Z,32.10
2018-02-15T11:53:07.704Z,32.80
2018-02-15T11:55:43.680Z,31.90
2018-02-15T11:58:17.698Z,31.90
2018-02-15T12:00:52.350Z,31.10
2018-02-15T12:03:28.246Z,32.10
2018-02-15T12:06:05.268Z,30.00
2018-02-15T12:08:44.012Z,32.30
2018-02-15T12:11:18.770Z,33.90
2018-02-15T12:13:53.465Z,34.10
2018-02-15T12:16:28.592Z,34.80
2018-02-15T12:19:03.553Z,35.30
2018-02-15T12:21:37.124Z,36.80
2018-02-15T12:24:12.649Z,38.00
2018-02-15T12:26:46.322Z,41.50
2018-02-15T12:29:20.044Z,43.30
2018-02-15T12:31:54.592Z,46.30
2018-02-15T12:34:28.397Z,47.20
2018-02-15T12:37:02.179Z,50.30
2018-02-15T12:39:35.988Z,49.70
2018-02-15T12:42:11.310Z,49.40
2018-02-15T12:44:46.024Z,50.20
2018-02-15T12:47:25.629Z,54.30
2018-02-15T12:50:06.723Z,58.20
2018-02-15T12:52:44.891Z,61.70
2018-02-15T12:55:28.964Z,66.40
2018-02-15T12:58:08.330Z,70.00
2018-02-15T13:00:43.306Z,72.00
2018-02-15T13:03:18.143Z,74.80
2018-02-15T13:05:55.252Z,76.20
2018-02-15T13:11:11.358Z,80.20
2018-02-15T13:13:46.560Z,86.20
2018-02-15T13:16:32.592Z,86.20
2018-02-15T13:19:18.782Z,88.40
2018-02-15T13:21:56.122Z,90.10
2018-02-15T13:24:31.416Z,90.10
2018-02-15T13:27:08.624Z,90.50
2018-02-15T13:29:42.380Z,90.70
2018-02-15T13:32:18.711Z,90.60
2018-02-15T13:34:52.492Z,90.30
2018-02-15T13:37:26.371Z,90.50
2018-02-15T13:40:00.101Z,89.20
2018-02-15T13:42:34.728Z,88.00
2018-02-15T13:45:08.421Z,87.90
2018-02-15T13:47:44.268Z,86.50
2018-02-15T13:50:17.944Z,86.50
2018-02-15T13:52:51.750Z,85.70
2018-02-15T13:55:26.136Z,84.10
2018-02-15T13:57:59.985Z,84.50
2018-02-15T14:00:35.754Z,84.80
2018-02-15T14:03:10.129Z,83.90
2018-02-15T14:05:43.706Z,85.00
2018-02-15T14:08:18.307Z,83.50
2018-02-15T14:10:52.093Z,83.50
2018-02-15T14:13:27.920Z,83.50
2018-02-15T14:16:04.179Z,83.40
2018-02-15T14:18:43.061Z,81.80
2018-02-15T14:21:19.332Z,80.70
2018-02-15T14:23:53.896Z,80.70
2018-02-15T14:26:31.976Z,80.80
2018-02-15T14:29:09.980Z,80.00
2018-02-15T14:31:43.771Z,79.10
2018-02-15T14:34:17.436Z,79.40
2018-02-15T14:36:53.136Z,79.00
2018-02-15T14:39:27.413Z,78.30
2018-02-15T14:42:02.020Z,78.90
2018-02-15T14:44:37.076Z,78.90
2018-02-15T14:47:10.732Z,79.90
2018-02-15T14:49:45.328Z,80.30
2018-02-15T14:52:19.014Z,81.10
2018-02-15T14:54:53.638Z,80.50
2018-02-15T14:57:27.692Z,81.80
2018-02-15T15:00:02.268Z,82.50
2018-02-15T15:02:36.086Z,81.70
2018-02-15T15:05:09.811Z,80.40
2018-02-15T15:07:44.198Z,81.00
2018-02-15T15:10:17.890Z,80.30
2018-02-15T15:12:52.079Z,81.20
2018-02-15T15:15:30.615Z,79.70
2018-02-15T15:18:07.394Z,80.50
2018-02-15T15:20:41.605Z,82.00
2018-02-15T15:23:15.753Z,81.60
2018-02-15T15:25:50.397Z,80.50
2018-02-15T15:28:25.048Z,80.50
2018-02-15T15:30:58.893Z,80.10
2018-02-15T15:33:32.953Z,79.80
2018-02-15T15:36:06.848Z,80.00
2018-02-15T15:38:41.336Z,80.50
2018-02-15T15:41:15.825Z,81.00
2018-02-15T15:43:49.788Z,81.00
2018-02-15T15:46:24.571Z,80.40
2018-02-15T15:48:59.860Z,81.30
2018-02-15T15:51:35.004Z,81.30
2018-02-15T15:54:08.768Z,83.10
2018-02-15T15:56:44.507Z,84.20
2018-02-15T15:59:18.984Z,86.70
2018-02-15T16:01:55.156Z,88.10
2018-02-15T16:04:29.937Z,89.10
2018-02-15T16:07:05.152Z,90.00
2018-02-15T16:09:40.177Z,89.80
2018-02-15T16:12:15.148Z,89.60
2018-02-15T16:14:52.065Z,90.00
2018-02-15T16:17:40.768Z,90.30
2018-02-15T16:20:16.455Z,90.30
2018-02-15T16:22:51.515Z,90.70
2018-02-15T16:25:28.010Z,91.00
2018-02-15T16:28:03.060Z,90.70
2018-02-15T16:30:39.410Z,90.70
2018-02-15T16:33:15.780Z,90.40
2018-02-15T16:35:50.353Z,90.60
2018-02-15T16:38:26.926Z,90.70
2018-02-15T16:41:02.933Z,90.80
2018-02-15T16:43:52.302Z,90.80
2018-02-15T16:46:27.126Z,90.90
2018-02-15T16:51:40.754Z,91.20
2018-02-15T16:54:15.872Z,91.20
2018-02-15T16:56:50.331Z,91.80
2018-02-15T16:59:24.393Z,91.60
2018-02-15T17:02:00.176Z,91.90
2018-02-15T17:04:36.405Z,91.90
2018-02-15T17:07:13.760Z,91.90
2018-02-15T17:09:47.500Z,92.10
2018-02-15T17:12:21.290Z,91.80
2018-02-15T17:14:55.242Z,91.80
2018-02-15T17:17:29.054Z,91.80
2018-02-15T17:20:02.749Z,91.70
2018-02-15T17:22:36.501Z,91.80
2018-02-15T17:25:10.261Z,91.70
2018-02-15T17:27:45.956Z,91.50
2018-02-15T17:30:19.704Z,91.50
2018-02-15T17:32:53.546Z,91.60
2018-02-15T17:35:27.384Z,91.60
2018-02-15T17:38:01.998Z,91.60
2018-02-15T17:40:37.429Z,91.60
2018-02-15T17:43:13.514Z,91.50
2018-02-15T17:45:47.963Z,91.50
2018-02-15T17:48:21.628Z,91.70
2018-02-15T17:50:55.348Z,91.70
2018-02-15T17:53:29.925Z,91.40
2018-02-15T17:56:04.816Z,91.30
2018-02-15T17:58:38.585Z,91.30
2018-02-15T18:01:13.333Z,91.20
2018-02-15T18:03:48.896Z,91.10
2018-02-15T18:06:23.507Z,91.30
2018-02-15T18:08:57.217Z,91.30
2018-02-15T18:11:30.994Z,91.20
2018-02-15T18:14:05.537Z,91.10
2018-02-15T18:16:39.367Z,91.10
2018-02-15T18:19:13.049Z,91.40
2018-02-15T18:21:49.239Z,91.30
2018-02-15T18:24:25.250Z,91.60
2018-02-15T18:26:59.889Z,91.60
2018-02-15T18:29:34.634Z,91.50
2018-02-15T18:32:09.183Z,91.60
2018-02-15T18:34:43.123Z,91.60
2018-02-15T18:37:16.802Z,91.50
2018-02-15T18:40:03.231Z,91.40
2018-02-15T18:42:37.703Z,91.40
2018-02-15T18:45:11.486Z,91.50
2018-02-15T18:47:46.077Z,91.50
2018-02-15T18:50:19.813Z,91.50
2018-02-15T18:52:53.567Z,91.30
2018-02-15T18:55:27.260Z,91.30
2018-02-15T18:58:02.878Z,91.40
2018-02-15T19:00:37.064Z,91.70
2018-02-15T19:03:10.859Z,91.80
2018-02-15T19:05:44.648Z,91.80
2018-02-15T19:08:18.438Z,91.90
2018-02-15T19:10:54.538Z,91.90
2018-02-15T19:13:28.339Z,91.80
2018-02-15T19:16:02.130Z,91.90
2018-02-15T19:18:35.751Z,92.00
2018-02-15T19:21:09.638Z,91.90
2018-02-15T19:23:44.145Z,91.90
2018-02-15T19:26:17.922Z,92.20
2018-02-15T19:28:52.359Z,92.00
2018-02-15T19:31:26.116Z,92.00
2018-02-15T19:34:00.043Z,92.10
2018-02-15T19:36:34.075Z,92.40
2018-02-15T19:39:07.762Z,92.40
2018-02-15T19:41:41.851Z,92.40
2018-02-15T19:44:15.557Z,92.60
2018-02-15T19:46:50.309Z,92.60
2018-02-15T19:49:23.939Z,92.60
2018-02-15T19:51:57.728Z,92.70
2018-02-15T19:54:31.319Z,92.70
2018-02-15T19:57:05.123Z,92.70
2018-02-15T19:59:41.804Z,92.70
2018-02-15T20:02:15.559Z,92.70
2018-02-15T20:04:49.249Z,92.70
2018-02-15T20:07:23.182Z,92.70
2018-02-15T20:09:56.944Z,92.80
2018-02-15T20:12:31.941Z,92.80
2018-02-15T20:15:05.481Z,92.80
2018-02-15T20:17:39.301Z,92.80
2018-02-15T20:20:18.835Z,92.80
2018-02-15T20:22:52.599Z,93.10
2018-02-15T20:25:26.268Z,93.40
2018-02-15T20:28:05.752Z,93.40
2018-02-15T20:30:39.457Z,93.40
2018-02-15T20:33:14.092Z,93.50
2018-02-15T20:35:47.807Z,93.70
2018-02-15T20:38:29.518Z,93.70
2018-02-15T20:41:03.091Z,93.70
2018-02-15T20:43:36.909Z,93.80
2018-02-15T20:46:10.620Z,93.80
2018-02-15T20:48:44.984Z,93.90
2018-02-15T20:51:24.556Z,93.80
2018-02-15T20:54:05.421Z,93.70
2018-02-15T20:56:41.912Z,93.90
2018-02-15T20:59:16.499Z,93.90
2018-02-15T21:01:52.696Z,93.80
2018-02-15T21:04:27.721Z,94.00
2018-02-15T21:07:02.584Z,94.00
2018-02-15T21:09:37.491Z,94.10
2018-02-15T21:12:11.109Z,94.30
2018-02-15T21:14:45.870Z,94.50
2018-02-15T21:17:19.697Z,94.60
2018-02-15T21:19:53.473Z,94.60
2018-02-15T21:22:27.309Z,94.60
2018-02-15T21:25:01.157Z,94.60
2018-02-15T21:27:34.928Z,94.70
2018-02-15T21:30:08.819Z,94.70
2018-02-15T21:32:43.158Z,94.90
2018-02-15T21:35:16.820Z,95.00
2018-02-15T21:37:51.668Z,94.90
2018-02-15T21:40:25.321Z,95.00
2018-02-15T21:42:59.745Z,95.00
2018-02-15T21:45:34.525Z,95.00
2018-02-15T21:48:09.121Z,95.00
2018-02-15T21:50:44.744Z,95.10
2018-02-15T21:53:18.580Z,95.00
2018-02-15T21:55:53.673Z,95.00
2018-02-15T21:58:27.511Z,95.00
2018-02-15T22:01:01.291Z,94.90
2018-02-15T22:03:35.888Z,94.90
2018-02-15T22:06:10.590Z,94.70
2018-02-15T22:08:45.122Z,94.60
2018-02-15T22:11:19.865Z,94.50
2018-02-15T22:13:54.500Z,94.50
2018-02-15T22:16:28.384Z,94.40
2018-02-15T22:19:02.213Z,94.40
2018-02-15T22:21:35.943Z,94.40
2018-02-15T22:24:09.687Z,94.30
2018-02-15T22:26:43.502Z,94.40
2018-02-15T22:29:17.411Z,94.30
2018-02-15T22:31:51.309Z,94.30
2018-02-15T22:34:25.011Z,94.40
2018-02-15T22:36:59.120Z,94.30
2018-02-15T22:39:32.957Z,94.30
2018-02-15T22:42:06.739Z,94.30
2018-02-15T22:44:40.592Z,94.20
2018-02-15T22:47:14.353Z,94.20
2018-02-15T22:49:49.044Z,94.30
2018-02-15T22:52:23.700Z,94.20
2018-02-15T22:54:58.276Z,94.20
2018-02-15T22:57:33.214Z,94.30
2018-02-15T23:00:07.910Z,94.30
2018-02-15T23:02:41.645Z,94.20
2018-02-15T23:05:15.527Z,94.20
2018-02-15T23:07:49.568Z,94.20
2018-02-15T23:10:24.084Z,94.20
2018-02-15T23:12:58.907Z,94.10
2018-02-15T23:15:32.671Z,94.10
2018-02-15T23:18:06.484Z,94.10
2018-02-15T23:20:40.112Z,94.20
2018-02-15T23:23:13.752Z,94.20
2018-02-15T23:25:48.170Z,94.20
2018-02-15T23:28:22.007Z,94.20
2018-02-15T23:30:55.710Z,94.20
2018-02-15T23:33:29.596Z,94.10
2018-02-15T23:36:03.248Z,94.20
2018-02-15T23:38:37.023Z,94.20
2018-02-15T23:41:11.472Z,94.20
2018-02-15T23:43:45.218Z,94.10
2018-02-15T23:46:20.202Z,94.00
2018-02-15T23:48:53.846Z,93.80
2018-02-15T23:51:28.455Z,93.50
2018-02-15T23:54:02.500Z,93.50
2018-02-15T23:56:36.163Z,93.40
2018-02-15T23:59:10.006Z,93.40
